sensor_id;sensor_type;location;lat;lon;timestamp;P1;durP1;ratioP1;P2;durP2;ratioP2
68921;SDS011;55959;51.244;5.724;2023-04-23T00:00:04;14.63;;;13.23;;
68921;SDS011;55959;51.244;5.724;2023-04-23T00:02:32;16.53;;;14.90;;
68921;SDS011;55959;51.244;5.724;2023-04-23T00:05:01;15.10;;;13.53;;
68921;SDS011;55959;51.244;5.724;2023-04-23T00:07:30;15.00;;;13.50;;
68921;SDS011;55959;51.244;5.724;2023-04-23T00:09:57;14.03;;;12.63;;
68921;SDS011;55959;51.244;5.724;2023-04-23T00:12:25;13.70;;;12.30;;
68921;SDS011;55959;51.244;5.724;2023-04-23T00:14:54;13.40;;;12.10;;
68921;SDS011;55959;51.244;5.724;2023-04-23T00:17:20;14.53;;;13.13;;
68921;SDS011;55959;51.244;5.724;2023-04-23T00:19:46;12.17;;;11.10;;
68921;SDS011;55959;51.244;5.724;2023-04-23T00:22:12;13.27;;;11.97;;
68921;SDS011;55959;51.244;5.724;2023-04-23T00:24:40;14.87;;;13.40;;
68921;SDS011;55959;51.244;5.724;2023-04-23T00:27:07;15.47;;;13.97;;
68921;SDS011;55959;51.244;5.724;2023-04-23T00:29:33;14.13;;;12.73;;
68921;SDS011;55959;51.244;5.724;2023-04-23T00:31:59;15.83;;;14.43;;
68921;SDS011;55959;51.244;5.724;2023-04-23T00:34:25;14.53;;;13.20;;
68921;SDS011;55959;51.244;5.724;2023-04-23T00:36:51;13.07;;;11.80;;
68921;SDS011;55959;51.244;5.724;2023-04-23T00:39:16;15.10;;;13.70;;
68921;SDS011;55959;51.244;5.724;2023-04-23T00:41:42;14.37;;;13.07;;
68921;SDS011;55959;51.244;5.724;2023-04-23T00:44:08;14.13;;;12.63;;
68921;SDS011;55959;51.244;5.724;2023-04-23T00:46:34;14.43;;;13.13;;
68921;SDS011;55959;51.244;5.724;2023-04-23T00:49:01;14.07;;;12.67;;
68921;SDS011;55959;51.244;5.724;2023-04-23T00:51:28;14.57;;;13.13;;
68921;SDS011;55959;51.244;5.724;2023-04-23T00:53:56;14.97;;;13.57;;
68921;SDS011;55959;51.244;5.724;2023-04-23T00:56:22;15.83;;;14.37;;
68921;SDS011;55959;51.244;5.724;2023-04-23T00:58:50;13.97;;;12.67;;
68921;SDS011;55959;51.244;5.724;2023-04-23T01:01:17;14.53;;;13.13;;
68921;SDS011;55959;51.244;5.724;2023-04-23T01:03:45;15.80;;;14.20;;
68921;SDS011;55959;51.244;5.724;2023-04-23T01:06:17;15.73;;;14.23;;
68921;SDS011;55959;51.244;5.724;2023-04-23T01:08:43;14.27;;;12.87;;
68921;SDS011;55959;51.244;5.724;2023-04-23T01:11:14;15.57;;;14.07;;
68921;SDS011;55959;51.244;5.724;2023-04-23T01:13:40;14.83;;;13.33;;
68921;SDS011;55959;51.244;5.724;2023-04-23T01:16:07;14.53;;;13.17;;
68921;SDS011;55959;51.244;5.724;2023-04-23T01:18:34;15.33;;;13.83;;
68921;SDS011;55959;51.244;5.724;2023-04-23T01:21:00;16.60;;;15.00;;
68921;SDS011;55959;51.244;5.724;2023-04-23T01:23:26;14.07;;;12.77;;
68921;SDS011;55959;51.244;5.724;2023-04-23T01:25:52;16.10;;;14.50;;
68921;SDS011;55959;51.244;5.724;2023-04-23T01:28:19;15.90;;;14.33;;
68921;SDS011;55959;51.244;5.724;2023-04-23T01:30:45;15.63;;;14.07;;
68921;SDS011;55959;51.244;5.724;2023-04-23T01:33:12;16.70;;;15.03;;
68921;SDS011;55959;51.244;5.724;2023-04-23T01:35:39;17.53;;;15.83;;
68921;SDS011;55959;51.244;5.724;2023-04-23T01:38:06;15.90;;;14.30;;
68921;SDS011;55959;51.244;5.724;2023-04-23T01:40:35;17.67;;;15.87;;
68921;SDS011;55959;51.244;5.724;2023-04-23T01:43:01;17.13;;;15.37;;
68921;SDS011;55959;51.244;5.724;2023-04-23T01:45:29;15.77;;;14.17;;
68921;SDS011;55959;51.244;5.724;2023-04-23T01:47:55;17.47;;;15.77;;
68921;SDS011;55959;51.244;5.724;2023-04-23T01:50:21;17.13;;;15.43;;
68921;SDS011;55959;51.244;5.724;2023-04-23T01:52:49;14.10;;;12.70;;
68921;SDS011;55959;51.244;5.724;2023-04-23T01:55:15;16.03;;;14.53;;
68921;SDS011;55959;51.244;5.724;2023-04-23T01:57:43;13.90;;;12.60;;
68921;SDS011;55959;51.244;5.724;2023-04-23T02:00:10;17.80;;;16.03;;
68921;SDS011;55959;51.244;5.724;2023-04-23T02:02:38;16.30;;;14.73;;
68921;SDS011;55959;51.244;5.724;2023-04-23T02:05:15;17.33;;;15.73;;
68921;SDS011;55959;51.244;5.724;2023-04-23T02:07:43;17.43;;;15.73;;
68921;SDS011;55959;51.244;5.724;2023-04-23T02:10:10;17.03;;;15.43;;
68921;SDS011;55959;51.244;5.724;2023-04-23T02:12:37;15.50;;;14.10;;
68921;SDS011;55959;51.244;5.724;2023-04-23T02:15:04;15.70;;;14.20;;
68921;SDS011;55959;51.244;5.724;2023-04-23T02:17:32;15.00;;;13.60;;
68921;SDS011;55959;51.244;5.724;2023-04-23T02:19:59;15.10;;;13.73;;
68921;SDS011;55959;51.244;5.724;2023-04-23T02:22:25;15.63;;;14.13;;
68921;SDS011;55959;51.244;5.724;2023-04-23T02:24:52;15.63;;;14.13;;
68921;SDS011;55959;51.244;5.724;2023-04-23T02:27:19;16.17;;;14.63;;
68921;SDS011;55959;51.244;5.724;2023-04-23T02:29:46;16.13;;;14.53;;
68921;SDS011;55959;51.244;5.724;2023-04-23T02:32:12;18.23;;;16.47;;
68921;SDS011;55959;51.244;5.724;2023-04-23T02:34:39;15.33;;;13.83;;
68921;SDS011;55959;51.244;5.724;2023-04-23T02:37:05;14.27;;;12.97;;
68921;SDS011;55959;51.244;5.724;2023-04-23T02:39:30;15.87;;;14.27;;
68921;SDS011;55959;51.244;5.724;2023-04-23T02:41:57;15.27;;;13.83;;
68921;SDS011;55959;51.244;5.724;2023-04-23T02:44:23;16.57;;;14.97;;
68921;SDS011;55959;51.244;5.724;2023-04-23T02:46:50;18.47;;;16.73;;
68921;SDS011;55959;51.244;5.724;2023-04-23T02:49:16;18.43;;;16.63;;
68921;SDS011;55959;51.244;5.724;2023-04-23T02:51:44;17.03;;;15.37;;
68921;SDS011;55959;51.244;5.724;2023-04-23T02:54:11;13.93;;;12.63;;
68921;SDS011;55959;51.244;5.724;2023-04-23T02:56:37;17.20;;;15.50;;
68921;SDS011;55959;51.244;5.724;2023-04-23T02:59:04;14.00;;;12.70;;
68921;SDS011;55959;51.244;5.724;2023-04-23T03:01:30;14.17;;;12.87;;
68921;SDS011;55959;51.244;5.724;2023-04-23T03:03:56;16.90;;;15.30;;
68921;SDS011;55959;51.244;5.724;2023-04-23T03:06:23;14.27;;;12.97;;
68921;SDS011;55959;51.244;5.724;2023-04-23T03:08:49;14.80;;;13.27;;
68921;SDS011;55959;51.244;5.724;2023-04-23T03:11:15;15.63;;;14.23;;
68921;SDS011;55959;51.244;5.724;2023-04-23T03:13:41;14.60;;;13.30;;
68921;SDS011;55959;51.244;5.724;2023-04-23T03:16:07;12.33;;;11.17;;
68921;SDS011;55959;51.244;5.724;2023-04-23T03:18:33;12.63;;;11.50;;
68921;SDS011;55959;51.244;5.724;2023-04-23T03:20:59;13.50;;;12.20;;
68921;SDS011;55959;51.244;5.724;2023-04-23T03:23:25;13.13;;;11.83;;
68921;SDS011;55959;51.244;5.724;2023-04-23T03:25:50;13.33;;;12.03;;
68921;SDS011;55959;51.244;5.724;2023-04-23T03:28:16;13.03;;;11.80;;
68921;SDS011;55959;51.244;5.724;2023-04-23T03:30:42;14.80;;;13.40;;
68921;SDS011;55959;51.244;5.724;2023-04-23T03:33:08;12.93;;;11.73;;
68921;SDS011;55959;51.244;5.724;2023-04-23T03:35:33;14.07;;;12.77;;
68921;SDS011;55959;51.244;5.724;2023-04-23T03:38:00;13.93;;;12.47;;
68921;SDS011;55959;51.244;5.724;2023-04-23T03:40:25;13.57;;;12.30;;
68921;SDS011;55959;51.244;5.724;2023-04-23T03:42:51;13.63;;;12.33;;
68921;SDS011;55959;51.244;5.724;2023-04-23T03:45:17;11.67;;;10.47;;
68921;SDS011;55959;51.244;5.724;2023-04-23T03:47:43;12.73;;;11.53;;
68921;SDS011;55959;51.244;5.724;2023-04-23T03:50:08;16.13;;;14.63;;
68921;SDS011;55959;51.244;5.724;2023-04-23T03:52:37;14.53;;;13.03;;
68921;SDS011;55959;51.244;5.724;2023-04-23T03:55:02;12.97;;;11.70;;
68921;SDS011;55959;51.244;5.724;2023-04-23T03:57:28;13.83;;;12.53;;
68921;SDS011;55959;51.244;5.724;2023-04-23T03:59:54;12.73;;;11.53;;
68921;SDS011;55959;51.244;5.724;2023-04-23T04:02:20;10.83;;;9.83;;
68921;SDS011;55959;51.244;5.724;2023-04-23T04:04:46;11.40;;;10.30;;
68921;SDS011;55959;51.244;5.724;2023-04-23T04:07:13;14.13;;;12.83;;
68921;SDS011;55959;51.244;5.724;2023-04-23T04:09:39;14.13;;;12.73;;
68921;SDS011;55959;51.244;5.724;2023-04-23T04:12:05;12.73;;;11.53;;
68921;SDS011;55959;51.244;5.724;2023-04-23T04:14:32;11.30;;;10.23;;
68921;SDS011;55959;51.244;5.724;2023-04-23T04:16:58;11.70;;;10.63;;
68921;SDS011;55959;51.244;5.724;2023-04-23T04:19:24;15.70;;;14.13;;
68921;SDS011;55959;51.244;5.724;2023-04-23T04:21:49;14.43;;;13.13;;
68921;SDS011;55959;51.244;5.724;2023-04-23T04:24:16;15.17;;;13.23;;
68921;SDS011;55959;51.244;5.724;2023-04-23T04:26:42;13.37;;;12.13;;
68921;SDS011;55959;51.244;5.724;2023-04-23T04:29:09;14.63;;;13.20;;
68921;SDS011;55959;51.244;5.724;2023-04-23T04:31:36;13.73;;;12.43;;
68921;SDS011;55959;51.244;5.724;2023-04-23T04:34:02;13.20;;;11.90;;
68921;SDS011;55959;51.244;5.724;2023-04-23T04:36:28;14.00;;;12.60;;
68921;SDS011;55959;51.244;5.724;2023-04-23T04:38:54;15.07;;;13.53;;
68921;SDS011;55959;51.244;5.724;2023-04-23T04:41:22;15.00;;;13.53;;
68921;SDS011;55959;51.244;5.724;2023-04-23T04:43:50;14.17;;;12.87;;
68921;SDS011;55959;51.244;5.724;2023-04-23T04:46:16;14.03;;;12.67;;
68921;SDS011;55959;51.244;5.724;2023-04-23T04:48:45;14.10;;;12.80;;
68921;SDS011;55959;51.244;5.724;2023-04-23T04:51:12;13.80;;;12.50;;
68921;SDS011;55959;51.244;5.724;2023-04-23T04:53:37;12.50;;;11.27;;
68921;SDS011;55959;51.244;5.724;2023-04-23T04:56:03;12.13;;;10.93;;
68921;SDS011;55959;51.244;5.724;2023-04-23T04:58:29;14.20;;;12.90;;
68921;SDS011;55959;51.244;5.724;2023-04-23T05:00:55;11.03;;;9.93;;
68921;SDS011;55959;51.244;5.724;2023-04-23T05:03:23;12.17;;;10.97;;
68921;SDS011;55959;51.244;5.724;2023-04-23T05:05:50;11.13;;;10.13;;
68921;SDS011;55959;51.244;5.724;2023-04-23T05:08:16;11.70;;;10.53;;
68921;SDS011;55959;51.244;5.724;2023-04-23T05:10:42;11.63;;;10.63;;
68921;SDS011;55959;51.244;5.724;2023-04-23T05:13:08;11.10;;;10.10;;
68921;SDS011;55959;51.244;5.724;2023-04-23T05:15:34;11.37;;;10.37;;
68921;SDS011;55959;51.244;5.724;2023-04-23T05:18:03;12.53;;;11.23;;
68921;SDS011;55959;51.244;5.724;2023-04-23T05:20:30;13.10;;;11.90;;
68921;SDS011;55959;51.244;5.724;2023-04-23T05:22:56;13.77;;;11.97;;
68921;SDS011;55959;51.244;5.724;2023-04-23T05:25:23;11.60;;;10.57;;
68921;SDS011;55959;51.244;5.724;2023-04-23T05:27:49;11.90;;;10.60;;
68921;SDS011;55959;51.244;5.724;2023-04-23T05:30:15;9.67;;;8.80;;
68921;SDS011;55959;51.244;5.724;2023-04-23T05:32:41;9.40;;;8.50;;
68921;SDS011;55959;51.244;5.724;2023-04-23T05:35:07;9.83;;;9.03;;
68921;SDS011;55959;51.244;5.724;2023-04-23T05:37:33;11.17;;;10.07;;
68921;SDS011;55959;51.244;5.724;2023-04-23T05:39:59;10.50;;;9.50;;
68921;SDS011;55959;51.244;5.724;2023-04-23T05:42:26;8.87;;;8.07;;
68921;SDS011;55959;51.244;5.724;2023-04-23T05:44:52;9.47;;;8.63;;
68921;SDS011;55959;51.244;5.724;2023-04-23T05:47:18;9.30;;;8.50;;
68921;SDS011;55959;51.244;5.724;2023-04-23T05:49:44;9.40;;;8.50;;
68921;SDS011;55959;51.244;5.724;2023-04-23T05:52:10;10.90;;;9.80;;
68921;SDS011;55959;51.244;5.724;2023-04-23T05:54:36;11.43;;;10.33;;
68921;SDS011;55959;51.244;5.724;2023-04-23T05:57:01;11.27;;;10.13;;
68921;SDS011;55959;51.244;5.724;2023-04-23T05:59:29;12.07;;;10.87;;
68921;SDS011;55959;51.244;5.724;2023-04-23T06:01:57;10.33;;;9.43;;
68921;SDS011;55959;51.244;5.724;2023-04-23T06:04:22;11.07;;;10.07;;
68921;SDS011;55959;51.244;5.724;2023-04-23T06:06:48;9.80;;;8.90;;
68921;SDS011;55959;51.244;5.724;2023-04-23T06:09:14;10.53;;;9.40;;
68921;SDS011;55959;51.244;5.724;2023-04-23T06:11:40;9.27;;;8.27;;
68921;SDS011;55959;51.244;5.724;2023-04-23T06:14:05;9.17;;;8.30;;
68921;SDS011;55959;51.244;5.724;2023-04-23T06:16:31;8.80;;;7.63;;
68921;SDS011;55959;51.244;5.724;2023-04-23T06:18:57;8.80;;;8.00;;
68921;SDS011;55959;51.244;5.724;2023-04-23T06:21:23;8.63;;;7.73;;
68921;SDS011;55959;51.244;5.724;2023-04-23T06:23:51;7.97;;;7.27;;
68921;SDS011;55959;51.244;5.724;2023-04-23T06:26:17;7.57;;;6.83;;
68921;SDS011;55959;51.244;5.724;2023-04-23T06:28:43;8.80;;;6.87;;
68921;SDS011;55959;51.244;5.724;2023-04-23T06:31:10;7.50;;;6.73;;
68921;SDS011;55959;51.244;5.724;2023-04-23T06:33:37;7.37;;;6.47;;
68921;SDS011;55959;51.244;5.724;2023-04-23T06:36:03;10.03;;;6.73;;
68921;SDS011;55959;51.244;5.724;2023-04-23T06:38:30;7.30;;;6.13;;
68921;SDS011;55959;51.244;5.724;2023-04-23T06:40:56;7.37;;;6.20;;
68921;SDS011;55959;51.244;5.724;2023-04-23T06:43:22;6.40;;;5.80;;
68921;SDS011;55959;51.244;5.724;2023-04-23T06:45:48;6.07;;;5.50;;
68921;SDS011;55959;51.244;5.724;2023-04-23T06:48:14;6.57;;;5.33;;
68921;SDS011;55959;51.244;5.724;2023-04-23T06:50:42;7.77;;;5.67;;
68921;SDS011;55959;51.244;5.724;2023-04-23T06:53:08;7.50;;;5.50;;
68921;SDS011;55959;51.244;5.724;2023-04-23T06:55:34;6.03;;;5.43;;
68921;SDS011;55959;51.244;5.724;2023-04-23T06:58:00;5.63;;;5.03;;
68921;SDS011;55959;51.244;5.724;2023-04-23T07:00:26;5.57;;;4.93;;
68921;SDS011;55959;51.244;5.724;2023-04-23T07:02:52;7.00;;;4.30;;
68921;SDS011;55959;51.244;5.724;2023-04-23T07:05:18;5.40;;;4.30;;
68921;SDS011;55959;51.244;5.724;2023-04-23T07:07:44;6.50;;;4.03;;
68921;SDS011;55959;51.244;5.724;2023-04-23T07:10:10;6.73;;;4.60;;
68921;SDS011;55959;51.244;5.724;2023-04-23T07:12:37;6.43;;;4.43;;
68921;SDS011;55959;51.244;5.724;2023-04-23T07:15:04;7.30;;;4.67;;
68921;SDS011;55959;51.244;5.724;2023-04-23T07:17:31;5.47;;;4.17;;
68921;SDS011;55959;51.244;5.724;2023-04-23T07:19:57;7.03;;;4.00;;
68921;SDS011;55959;51.244;5.724;2023-04-23T07:22:23;4.50;;;4.00;;
68921;SDS011;55959;51.244;5.724;2023-04-23T07:24:51;6.13;;;3.47;;
68921;SDS011;55959;51.244;5.724;2023-04-23T07:27:17;4.27;;;3.30;;
68921;SDS011;55959;51.244;5.724;2023-04-23T07:29:43;6.53;;;3.60;;
68921;SDS011;55959;51.244;5.724;2023-04-23T07:32:09;8.20;;;4.00;;
68921;SDS011;55959;51.244;5.724;2023-04-23T07:34:36;3.83;;;3.27;;
68921;SDS011;55959;51.244;5.724;2023-04-23T07:37:02;7.50;;;4.03;;
68921;SDS011;55959;51.244;5.724;2023-04-23T07:39:28;4.90;;;3.50;;
68921;SDS011;55959;51.244;5.724;2023-04-23T07:41:54;5.60;;;4.07;;
68921;SDS011;55959;51.244;5.724;2023-04-23T07:44:23;6.17;;;3.53;;
68921;SDS011;55959;51.244;5.724;2023-04-23T07:46:49;8.50;;;3.90;;
68921;SDS011;55959;51.244;5.724;2023-04-23T07:49:15;6.07;;;3.50;;
68921;SDS011;55959;51.244;5.724;2023-04-23T07:51:41;6.20;;;3.70;;
68921;SDS011;55959;51.244;5.724;2023-04-23T07:54:07;5.10;;;3.73;;
68921;SDS011;55959;51.244;5.724;2023-04-23T07:56:34;6.87;;;3.40;;
68921;SDS011;55959;51.244;5.724;2023-04-23T07:59:00;8.10;;;3.50;;
68921;SDS011;55959;51.244;5.724;2023-04-23T08:01:26;6.37;;;3.20;;
68921;SDS011;55959;51.244;5.724;2023-04-23T08:03:52;6.43;;;3.13;;
68921;SDS011;55959;51.244;5.724;2023-04-23T08:06:20;5.47;;;2.83;;
68921;SDS011;55959;51.244;5.724;2023-04-23T08:08:47;5.30;;;3.03;;
68921;SDS011;55959;51.244;5.724;2023-04-23T08:11:14;7.97;;;3.10;;
68921;SDS011;55959;51.244;5.724;2023-04-23T08:13:40;5.40;;;2.60;;
68921;SDS011;55959;51.244;5.724;2023-04-23T08:16:06;7.57;;;2.87;;
68921;SDS011;55959;51.244;5.724;2023-04-23T08:18:31;9.50;;;2.90;;
68921;SDS011;55959;51.244;5.724;2023-04-23T08:20:57;5.67;;;2.90;;
68921;SDS011;55959;51.244;5.724;2023-04-23T08:23:23;6.30;;;3.20;;
68921;SDS011;55959;51.244;5.724;2023-04-23T08:25:49;6.70;;;2.60;;
68921;SDS011;55959;51.244;5.724;2023-04-23T08:28:16;4.63;;;2.50;;
68921;SDS011;55959;51.244;5.724;2023-04-23T08:30:43;6.40;;;3.00;;
68921;SDS011;55959;51.244;5.724;2023-04-23T08:33:08;5.27;;;2.60;;
68921;SDS011;55959;51.244;5.724;2023-04-23T08:35:34;6.90;;;2.00;;
68921;SDS011;55959;51.244;5.724;2023-04-23T08:38:00;6.93;;;2.30;;
68921;SDS011;55959;51.244;5.724;2023-04-23T08:40:26;4.67;;;2.00;;
68921;SDS011;55959;51.244;5.724;2023-04-23T08:45:21;6.17;;;2.37;;
68921;SDS011;55959;51.244;5.724;2023-04-23T08:47:48;4.40;;;2.00;;
68921;SDS011;55959;51.244;5.724;2023-04-23T08:50:16;7.57;;;3.00;;
68921;SDS011;55959;51.244;5.724;2023-04-23T08:52:45;5.03;;;2.27;;
68921;SDS011;55959;51.244;5.724;2023-04-23T08:55:14;4.57;;;2.27;;
68921;SDS011;55959;51.244;5.724;2023-04-23T08:57:42;4.07;;;2.40;;
68921;SDS011;55959;51.244;5.724;2023-04-23T09:00:10;5.13;;;2.33;;
68921;SDS011;55959;51.244;5.724;2023-04-23T09:02:40;7.43;;;2.43;;
68921;SDS011;55959;51.244;5.724;2023-04-23T09:05:09;7.03;;;2.40;;
68921;SDS011;55959;51.244;5.724;2023-04-23T09:07:36;6.53;;;2.37;;
68921;SDS011;55959;51.244;5.724;2023-04-23T09:10:03;5.63;;;2.33;;
68921;SDS011;55959;51.244;5.724;2023-04-23T09:12:30;5.23;;;1.90;;
68921;SDS011;55959;51.244;5.724;2023-04-23T09:14:58;5.70;;;1.87;;
68921;SDS011;55959;51.244;5.724;2023-04-23T09:17:24;6.50;;;2.07;;
68921;SDS011;55959;51.244;5.724;2023-04-23T09:19:54;6.90;;;2.10;;
68921;SDS011;55959;51.244;5.724;2023-04-23T09:25:09;5.67;;;2.00;;
68921;SDS011;55959;51.244;5.724;2023-04-23T09:27:36;3.93;;;1.70;;
68921;SDS011;55959;51.244;5.724;2023-04-23T09:30:06;6.00;;;1.83;;
68921;SDS011;55959;51.244;5.724;2023-04-23T09:32:35;5.00;;;1.93;;
68921;SDS011;55959;51.244;5.724;2023-04-23T09:35:03;3.33;;;1.50;;
68921;SDS011;55959;51.244;5.724;2023-04-23T09:37:31;6.43;;;1.87;;
68921;SDS011;55959;51.244;5.724;2023-04-23T09:39:58;4.77;;;1.57;;
68921;SDS011;55959;51.244;5.724;2023-04-23T09:42:26;5.03;;;1.70;;
68921;SDS011;55959;51.244;5.724;2023-04-23T09:45:03;5.70;;;2.10;;
68921;SDS011;55959;51.244;5.724;2023-04-23T09:47:37;4.70;;;2.47;;
68921;SDS011;55959;51.244;5.724;2023-04-23T09:50:04;5.20;;;2.00;;
68921;SDS011;55959;51.244;5.724;2023-04-23T09:52:31;6.20;;;2.07;;
68921;SDS011;55959;51.244;5.724;2023-04-23T09:55:00;4.30;;;2.00;;
68921;SDS011;55959;51.244;5.724;2023-04-23T09:57:26;2.77;;;1.53;;
68921;SDS011;55959;51.244;5.724;2023-04-23T09:59:55;5.30;;;2.47;;
68921;SDS011;55959;51.244;5.724;2023-04-23T10:02:25;5.77;;;2.33;;
68921;SDS011;55959;51.244;5.724;2023-04-23T10:04:57;5.93;;;2.27;;
68921;SDS011;55959;51.244;5.724;2023-04-23T10:07:23;4.20;;;2.10;;
68921;SDS011;55959;51.244;5.724;2023-04-23T10:09:49;4.63;;;1.70;;
68921;SDS011;55959;51.244;5.724;2023-04-23T10:12:15;6.13;;;2.33;;
68921;SDS011;55959;51.244;5.724;2023-04-23T10:14:42;4.53;;;1.60;;
68921;SDS011;55959;51.244;5.724;2023-04-23T10:17:08;5.40;;;1.80;;
68921;SDS011;55959;51.244;5.724;2023-04-23T10:19:34;6.83;;;2.00;;
68921;SDS011;55959;51.244;5.724;2023-04-23T10:22:05;3.17;;;2.10;;
68921;SDS011;55959;51.244;5.724;2023-04-23T10:24:36;3.70;;;1.80;;
68921;SDS011;55959;51.244;5.724;2023-04-23T10:27:05;5.67;;;2.20;;
68921;SDS011;55959;51.244;5.724;2023-04-23T10:29:37;6.93;;;4.03;;
68921;SDS011;55959;51.244;5.724;2023-04-23T10:32:04;6.00;;;2.60;;
68921;SDS011;55959;51.244;5.724;2023-04-23T10:34:31;8.00;;;2.37;;
68921;SDS011;55959;51.244;5.724;2023-04-23T10:36:58;4.80;;;2.07;;
68921;SDS011;55959;51.244;5.724;2023-04-23T10:39:32;5.07;;;2.13;;
68921;SDS011;55959;51.244;5.724;2023-04-23T10:41:59;3.23;;;1.63;;
68921;SDS011;55959;51.244;5.724;2023-04-23T10:44:34;6.13;;;2.03;;
68921;SDS011;55959;51.244;5.724;2023-04-23T10:47:02;4.63;;;2.00;;
68921;SDS011;55959;51.244;5.724;2023-04-23T10:49:30;6.57;;;2.03;;
68921;SDS011;55959;51.244;5.724;2023-04-23T10:52:01;3.77;;;1.70;;
68921;SDS011;55959;51.244;5.724;2023-04-23T10:54:33;3.77;;;1.73;;
68921;SDS011;55959;51.244;5.724;2023-04-23T10:57:03;5.47;;;2.03;;
68921;SDS011;55959;51.244;5.724;2023-04-23T10:59:31;6.23;;;1.60;;
68921;SDS011;55959;51.244;5.724;2023-04-23T11:02:09;8.07;;;1.67;;
68921;SDS011;55959;51.244;5.724;2023-04-23T11:04:46;4.37;;;1.87;;
68921;SDS011;55959;51.244;5.724;2023-04-23T11:07:29;5.03;;;1.70;;
68921;SDS011;55959;51.244;5.724;2023-04-23T11:10:00;4.43;;;1.67;;
68921;SDS011;55959;51.244;5.724;2023-04-23T11:12:39;4.13;;;1.50;;
68921;SDS011;55959;51.244;5.724;2023-04-23T11:15:12;3.40;;;1.53;;
68921;SDS011;55959;51.244;5.724;2023-04-23T11:20:09;4.23;;;1.47;;
68921;SDS011;55959;51.244;5.724;2023-04-23T11:22:43;4.90;;;1.43;;
68921;SDS011;55959;51.244;5.724;2023-04-23T11:25:21;3.97;;;1.73;;
68921;SDS011;55959;51.244;5.724;2023-04-23T11:27:49;3.13;;;1.30;;
68921;SDS011;55959;51.244;5.724;2023-04-23T11:30:18;2.95;;;1.48;;
68921;SDS011;55959;51.244;5.724;2023-04-23T11:32:50;3.95;;;1.50;;
68921;SDS011;55959;51.244;5.724;2023-04-23T11:35:19;5.28;;;1.42;;
68921;SDS011;55959;51.244;5.724;2023-04-23T11:37:48;3.13;;;1.40;;
68921;SDS011;55959;51.244;5.724;2023-04-23T11:40:17;2.88;;;1.60;;
68921;SDS011;55959;51.244;5.724;2023-04-23T11:47:52;2.73;;;1.07;;
68921;SDS011;55959;51.244;5.724;2023-04-23T11:50:23;4.63;;;1.70;;
68921;SDS011;55959;51.244;5.724;2023-04-23T11:52:53;5.10;;;1.50;;
68921;SDS011;55959;51.244;5.724;2023-04-23T11:55:19;2.63;;;1.30;;
68921;SDS011;55959;51.244;5.724;2023-04-23T11:57:46;6.60;;;2.10;;
68921;SDS011;55959;51.244;5.724;2023-04-23T12:00:15;4.03;;;1.65;;
68921;SDS011;55959;51.244;5.724;2023-04-23T12:02:53;5.07;;;1.27;;
68921;SDS011;55959;51.244;5.724;2023-04-23T12:05:27;3.92;;;1.00;;
68921;SDS011;55959;51.244;5.724;2023-04-23T12:08:08;3.08;;;1.10;;
68921;SDS011;55959;51.244;5.724;2023-04-23T12:15:49;3.83;;;1.30;;
68921;SDS011;55959;51.244;5.724;2023-04-23T12:18:25;2.87;;;1.37;;
68921;SDS011;55959;51.244;5.724;2023-04-23T12:21:11;3.50;;;1.20;;
68921;SDS011;55959;51.244;5.724;2023-04-23T12:23:38;2.90;;;1.30;;
68921;SDS011;55959;51.244;5.724;2023-04-23T12:26:12;2.92;;;0.90;;
68921;SDS011;55959;51.244;5.724;2023-04-23T12:28:49;6.37;;;1.40;;
68921;SDS011;55959;51.244;5.724;2023-04-23T12:31:22;3.00;;;1.70;;
68921;SDS011;55959;51.244;5.724;2023-04-23T12:34:02;4.27;;;1.27;;
68921;SDS011;55959;51.244;5.724;2023-04-23T12:36:31;3.20;;;1.20;;
68921;SDS011;55959;51.244;5.724;2023-04-23T12:41:43;5.18;;;2.67;;
68921;SDS011;55959;51.244;5.724;2023-04-23T12:44:09;4.00;;;1.30;;
68921;SDS011;55959;51.244;5.724;2023-04-23T12:46:35;2.83;;;1.10;;
68921;SDS011;55959;51.244;5.724;2023-04-23T12:49:01;1.80;;;1.10;;
68921;SDS011;55959;51.244;5.724;2023-04-23T12:51:26;3.27;;;1.23;;
68921;SDS011;55959;51.244;5.724;2023-04-23T12:53:52;4.55;;;1.40;;
68921;SDS011;55959;51.244;5.724;2023-04-23T12:56:19;3.20;;;1.00;;
68921;SDS011;55959;51.244;5.724;2023-04-23T12:58:45;3.42;;;1.10;;
68921;SDS011;55959;51.244;5.724;2023-04-23T13:01:11;2.67;;;0.95;;
68921;SDS011;55959;51.244;5.724;2023-04-23T13:03:38;2.03;;;0.88;;
68921;SDS011;55959;51.244;5.724;2023-04-23T13:06:04;2.10;;;1.08;;
68921;SDS011;55959;51.244;5.724;2023-04-23T13:08:32;5.28;;;1.38;;
68921;SDS011;55959;51.244;5.724;2023-04-23T13:10:58;3.08;;;1.20;;
68921;SDS011;55959;51.244;5.724;2023-04-23T13:13:24;2.75;;;0.90;;
68921;SDS011;55959;51.244;5.724;2023-04-23T13:15:52;2.45;;;0.93;;
68921;SDS011;55959;51.244;5.724;2023-04-23T13:18:18;3.42;;;1.10;;
68921;SDS011;55959;51.244;5.724;2023-04-23T13:20:46;4.18;;;1.30;;
68921;SDS011;55959;51.244;5.724;2023-04-23T13:23:12;3.05;;;1.05;;
68921;SDS011;55959;51.244;5.724;2023-04-23T13:25:38;2.90;;;1.20;;
68921;SDS011;55959;51.244;5.724;2023-04-23T13:28:04;2.92;;;1.10;;
68921;SDS011;55959;51.244;5.724;2023-04-23T13:30:31;3.22;;;1.25;;
68921;SDS011;55959;51.244;5.724;2023-04-23T13:32:56;2.95;;;1.17;;
68921;SDS011;55959;51.244;5.724;2023-04-23T13:35:23;3.13;;;0.80;;
68921;SDS011;55959;51.244;5.724;2023-04-23T13:37:49;3.13;;;1.03;;
68921;SDS011;55959;51.244;5.724;2023-04-23T13:40:15;2.80;;;1.00;;
68921;SDS011;55959;51.244;5.724;2023-04-23T13:42:41;1.87;;;0.80;;
68921;SDS011;55959;51.244;5.724;2023-04-23T13:45:06;17.07;;;4.63;;
68921;SDS011;55959;51.244;5.724;2023-04-23T13:47:32;4.63;;;1.20;;
68921;SDS011;55959;51.244;5.724;2023-04-23T13:49:59;3.47;;;1.30;;
68921;SDS011;55959;51.244;5.724;2023-04-23T13:52:29;2.43;;;1.00;;
68921;SDS011;55959;51.244;5.724;2023-04-23T13:54:55;3.20;;;1.37;;
68921;SDS011;55959;51.244;5.724;2023-04-23T13:57:21;1.70;;;0.93;;
68921;SDS011;55959;51.244;5.724;2023-04-23T13:59:48;2.83;;;1.10;;
68921;SDS011;55959;51.244;5.724;2023-04-23T14:02:14;2.23;;;1.17;;
68921;SDS011;55959;51.244;5.724;2023-04-23T14:04:40;4.00;;;1.17;;
68921;SDS011;55959;51.244;5.724;2023-04-23T14:07:05;2.70;;;1.37;;
68921;SDS011;55959;51.244;5.724;2023-04-23T14:09:31;6.00;;;2.57;;
68921;SDS011;55959;51.244;5.724;2023-04-23T14:11:57;3.87;;;1.60;;
68921;SDS011;55959;51.244;5.724;2023-04-23T14:14:23;4.87;;;1.33;;
68921;SDS011;55959;51.244;5.724;2023-04-23T14:16:49;2.60;;;1.00;;
68921;SDS011;55959;51.244;5.724;2023-04-23T14:19:15;3.37;;;1.70;;
68921;SDS011;55959;51.244;5.724;2023-04-23T14:21:40;2.23;;;0.93;;
68921;SDS011;55959;51.244;5.724;2023-04-23T14:24:07;3.77;;;1.20;;
68921;SDS011;55959;51.244;5.724;2023-04-23T14:26:41;1.33;;;1.00;;
68921;SDS011;55959;51.244;5.724;2023-04-23T14:31:59;1.77;;;0.90;;
68921;SDS011;55959;51.244;5.724;2023-04-23T14:34:25;4.63;;;1.30;;
68921;SDS011;55959;51.244;5.724;2023-04-23T14:36:51;3.23;;;1.20;;
68921;SDS011;55959;51.244;5.724;2023-04-23T14:39:17;2.87;;;1.47;;
68921;SDS011;55959;51.244;5.724;2023-04-23T14:41:43;5.33;;;2.60;;
68921;SDS011;55959;51.244;5.724;2023-04-23T14:44:09;11.33;;;5.27;;
68921;SDS011;55959;51.244;5.724;2023-04-23T14:46:35;4.03;;;1.97;;
68921;SDS011;55959;51.244;5.724;2023-04-23T14:49:01;3.27;;;1.20;;
68921;SDS011;55959;51.244;5.724;2023-04-23T14:51:27;3.03;;;1.30;;
68921;SDS011;55959;51.244;5.724;2023-04-23T14:53:52;2.93;;;1.30;;
68921;SDS011;55959;51.244;5.724;2023-04-23T14:56:18;2.90;;;1.60;;
68921;SDS011;55959;51.244;5.724;2023-04-23T14:58:44;5.67;;;3.17;;
68921;SDS011;55959;51.244;5.724;2023-04-23T15:01:10;3.43;;;2.50;;